createdAt,value
2022-10-01T00:00:08.986Z,98475.89
2022-10-01T00:05:12.586Z,98479.55
2022-10-01T00:10:15.878Z,98480.13
2022-10-01T00:15:19.781Z,98489.20
2022-10-01T00:20:21.655Z,98487.44
2022-10-01T00:25:25.608Z,98483.86
2022-10-01T00:30:27.379Z,98480.11
2022-10-01T00:35:29.246Z,98478.37
2022-10-01T00:40:31.645Z,98491.16
2022-10-01T00:45:33.616Z,98489.56
2022-10-01T00:50:38.159Z,98484.63
2022-10-01T00:55:43.214Z,98491.05
2022-10-01T01:00:56.057Z,98480.29
2022-10-01T01:05:58.110Z,98475.13
2022-10-01T01:11:24.689Z,98480.45
2022-10-01T01:16:41.561Z,98477.92
2022-10-01T01:21:48.063Z,98469.77
2022-10-01T01:26:56.535Z,98468.11
2022-10-01T01:32:03.904Z,98480.36
2022-10-01T01:37:12.043Z,98480.87
2022-10-01T01:42:21.407Z,98478.43
2022-10-01T01:47:29.593Z,98479.98
2022-10-01T01:52:33.923Z,98479.73
2022-10-01T01:57:44.316Z,98485.80
2022-10-01T02:02:53.632Z,98484.52
2022-10-01T02:08:28.285Z,98480.16
2022-10-01T02:13:53.011Z,98488.05
2022-10-01T02:19:05.985Z,98477.89
2022-10-01T02:24:16.871Z,98480.86
2022-10-01T02:29:22.225Z,98487.80
2022-10-01T02:34:29.141Z,98488.35
2022-10-01T02:39:33.836Z,98481.09
2022-10-01T02:44:42.618Z,98476.77
2022-10-01T02:49:49.911Z,98482.82
2022-10-01T02:55:06.885Z,98484.46
2022-10-01T03:00:12.213Z,98484.16
2022-10-01T03:05:15.529Z,98486.38
2022-10-01T03:10:17.718Z,98480.58
2022-10-01T03:15:24.601Z,98481.44
2022-10-01T03:20:49.474Z,98473.58
2022-10-01T03:25:51.302Z,98467.98
2022-10-01T03:30:53.106Z,98461.48
2022-10-01T03:35:55.039Z,98453.98
2022-10-01T03:40:57.021Z,98445.98
2022-10-01T03:45:58.866Z,98445.16
2022-10-01T03:51:02.222Z,98436.34
2022-10-01T03:56:04.992Z,98434.52
2022-10-01T04:01:06.739Z,98431.02
2022-10-01T04:06:08.879Z,98422.11
2022-10-01T04:11:11.723Z,98420.70
2022-10-01T04:16:13.998Z,98412.90
2022-10-01T04:21:15.760Z,98400.11
2022-10-01T04:26:19.237Z,98402.09
2022-10-01T04:31:27.172Z,98410.72
2022-10-01T04:36:29.315Z,98413.70
2022-10-01T04:41:32.276Z,98416.48
2022-10-01T04:46:34.226Z,98421.79
2022-10-01T04:51:36.868Z,98426.85
2022-10-01T04:56:38.857Z,98423.03
2022-10-01T05:01:42.273Z,98419.15
2022-10-01T05:06:44.197Z,98412.63
2022-10-01T05:11:46.046Z,98419.17
2022-10-01T05:16:47.826Z,98414.58
2022-10-01T05:21:49.721Z,98412.16
2022-10-01T05:26:58.673Z,98406.72
2022-10-01T05:32:01.012Z,98406.71
2022-10-01T05:37:03.338Z,98410.16
2022-10-01T05:42:06.519Z,98414.27
2022-10-01T05:47:08.535Z,98414.29
2022-10-01T05:52:11.955Z,98414.88
2022-10-01T05:57:13.738Z,98412.20
2022-10-01T06:02:15.547Z,98418.75
2022-10-01T06:07:17.418Z,98419.69
2022-10-01T06:12:20.031Z,98418.50
2022-10-01T06:17:21.980Z,98411.28
2022-10-01T06:22:23.753Z,98408.20
2022-10-01T06:27:25.505Z,98400.96
2022-10-01T06:32:30.513Z,98406.56
2022-10-01T06:37:38.329Z,98400.21
2022-10-01T06:42:40.001Z,98401.12
2022-10-01T06:47:56.665Z,98404.73
2022-10-01T06:52:59.286Z,98400.40
2022-10-01T06:58:04.147Z,98401.65
2022-10-01T07:03:11.094Z,98398.55
2022-10-01T07:08:18.001Z,98396.46
2022-10-01T07:13:21.020Z,98393.33
2022-10-01T07:18:23.391Z,98388.23
2022-10-01T07:23:25.372Z,98384.59
2022-10-01T07:28:28.302Z,98384.08
2022-10-01T07:33:30.971Z,98379.42
2022-10-01T07:38:35.826Z,98384.02
2022-10-01T07:43:43.870Z,98383.55
2022-10-01T07:48:49.365Z,98377.70
2022-10-01T07:53:51.207Z,98368.73
2022-10-01T07:58:57.357Z,98363.73
2022-10-01T08:03:59.206Z,98367.73
2022-10-01T08:09:01.230Z,98361.48
2022-10-01T08:14:04.760Z,98361.48
2022-10-01T08:19:09.536Z,98355.75
2022-10-01T08:24:11.371Z,98355.63
2022-10-01T08:29:16.976Z,98352.37
2022-10-01T08:34:19.357Z,98354.70
2022-10-01T08:39:21.278Z,98355.55
2022-10-01T08:44:33.897Z,98354.95
2022-10-01T08:49:42.297Z,98356.36
2022-10-01T08:54:54.775Z,98354.61
2022-10-01T09:00:02.674Z,98356.64
2022-10-01T09:05:11.198Z,98356.34
2022-10-01T09:10:31.790Z,98351.95
2022-10-01T09:15:46.216Z,98343.61
2022-10-01T09:20:54.923Z,98337.13
2022-10-01T09:26:00.045Z,98328.27
2022-10-01T09:31:04.994Z,98322.43
2022-10-01T09:36:52.034Z,98322.89
2022-10-01T09:41:54.021Z,98319.98
2022-10-01T09:46:56.169Z,98322.64
2022-10-01T09:52:02.951Z,98321.76
2022-10-01T09:57:12.572Z,98312.25
2022-10-01T10:02:39.311Z,98301.65
2022-10-01T10:08:05.903Z,98298.25
2022-10-01T10:13:13.923Z,98290.70
2022-10-01T10:18:21.569Z,98283.95
2022-10-01T10:23:26.775Z,98270.83
2022-10-01T10:28:52.909Z,98261.30
2022-10-01T10:34:16.668Z,98246.37
2022-10-01T10:39:31.536Z,98235.97
2022-10-01T10:44:38.936Z,98226.71
2022-10-01T10:49:54.187Z,98210.66
2022-10-01T10:54:59.057Z,98201.02
2022-10-01T11:00:12.981Z,98192.80
2022-10-01T11:05:36.913Z,98175.16
2022-10-01T11:11:22.091Z,98161.61
2022-10-01T11:16:42.898Z,98154.33
2022-10-01T11:22:04.993Z,98152.83
2022-10-01T11:27:15.676Z,98143.02
2022-10-01T11:32:22.301Z,98133.16
2022-10-01T11:38:07.132Z,98120.91
2022-10-01T11:43:18.433Z,98117.58
2022-10-01T11:48:38.301Z,98110.63
2022-10-01T11:53:46.100Z,98107.44
2022-10-01T11:58:59.523Z,98105.40
2022-10-01T12:04:16.612Z,98105.81
2022-10-01T12:09:31.371Z,98101.89
2022-10-01T12:14:55.545Z,98092.95
2022-10-01T12:19:59.875Z,98080.61
2022-10-01T12:25:01.921Z,98083.00
2022-10-01T12:30:16.597Z,98078.31
2022-10-01T12:35:35.496Z,98069.30
2022-10-01T12:41:16.040Z,98068.17
2022-10-01T12:46:49.073Z,98068.59
2022-10-01T12:52:07.865Z,98062.37
2022-10-01T12:57:43.005Z,98058.12
2022-10-01T13:03:13.952Z,98055.16
2022-10-01T13:08:53.723Z,98048.27
2022-10-01T13:14:10.917Z,98049.15
2022-10-01T13:19:55.393Z,98045.73
2022-10-01T13:25:19.904Z,98037.59
2022-10-01T13:30:42.713Z,98038.48
2022-10-01T13:35:55.024Z,98039.38
2022-10-01T13:41:00.013Z,98036.27
2022-10-01T13:46:11.042Z,98030.26
2022-10-01T13:51:14.777Z,98022.46
2022-10-01T13:56:31.065Z,98016.61
2022-10-01T14:01:41.708Z,98012.02
2022-10-01T14:06:50.710Z,98006.36
2022-10-01T14:12:18.804Z,97999.38
2022-10-01T14:17:30.602Z,97995.01
2022-10-01T14:23:05.913Z,97988.36
2022-10-01T14:28:52.014Z,97993.22
2022-10-01T14:34:07.144Z,97980.61
2022-10-01T14:39:19.271Z,97970.90
2022-10-01T14:44:30.187Z,97966.83
2022-10-01T14:49:33.040Z,97961.61
2022-10-01T14:55:00.906Z,97958.78
2022-10-01T15:00:11.346Z,97954.86
2022-10-01T15:05:21.661Z,97949.53
2022-10-01T15:10:27.683Z,97947.52
2022-10-01T15:15:40.788Z,97943.41
2022-10-01T15:21:18.031Z,97944.61
2022-10-01T15:26:31.364Z,97943.82
2022-10-01T15:31:33.839Z,97939.02
2022-10-01T15:36:37.207Z,97939.59
2022-10-01T15:41:40.364Z,97943.66
2022-10-01T15:46:42.826Z,97944.55
2022-10-01T15:52:11.917Z,97943.44
2022-10-01T15:57:23.595Z,97941.83
2022-10-01T16:02:30.234Z,97938.56
2022-10-01T16:07:36.398Z,97928.67
2022-10-01T16:12:38.726Z,97925.58
2022-10-01T16:17:53.534Z,97922.73
2022-10-01T16:23:34.803Z,97916.84
2022-10-01T16:28:36.706Z,97915.95
2022-10-01T16:33:38.427Z,97917.00
2022-10-01T16:38:40.307Z,97919.35
2022-10-01T16:43:42.105Z,97918.56
2022-10-01T16:48:44.668Z,97916.21
2022-10-01T16:53:47.133Z,97904.83
2022-10-01T16:58:48.835Z,97901.04
2022-10-01T17:03:50.505Z,97900.53
2022-10-01T17:08:52.242Z,97903.88
2022-10-01T17:13:54.351Z,97901.56
2022-10-01T17:18:56.067Z,97901.47
2022-10-01T17:24:03.135Z,97898.60
2022-10-01T17:29:06.842Z,97902.92
2022-10-01T17:34:08.611Z,97903.52
2022-10-01T17:39:10.466Z,97901.02
2022-10-01T17:44:12.293Z,97900.27
2022-10-01T17:49:14.661Z,97907.86
2022-10-01T17:54:16.562Z,97918.63
2022-10-01T17:59:19.005Z,97930.51
2022-10-01T18:04:20.870Z,97942.65
2022-10-01T18:09:22.999Z,97956.53
2022-10-01T18:14:24.854Z,97960.48
2022-10-01T18:24:51.671Z,97968.02
2022-10-01T18:29:53.415Z,97970.98
2022-10-01T18:35:01.157Z,97971.90
2022-10-01T18:40:13.046Z,97971.58
2022-10-01T18:45:48.598Z,97972.80
2022-10-01T18:50:57.150Z,97978.92
2022-10-01T18:56:41.887Z,97984.35
2022-10-01T19:02:15.949Z,97988.39
2022-10-01T19:07:55.844Z,98011.98
2022-10-01T19:13:28.912Z,98024.00
2022-10-01T19:18:39.968Z,98026.26
2022-10-01T19:24:04.774Z,98024.73
2022-10-01T19:30:01.644Z,98028.86
2022-10-01T19:35:11.583Z,98026.98
2022-10-01T19:40:21.041Z,98027.73
2022-10-01T19:45:29.542Z,98029.27
2022-10-01T19:50:34.699Z,98039.04
2022-10-01T19:55:38.835Z,98038.40
2022-10-01T20:00:41.562Z,98040.38
2022-10-01T20:05:46.146Z,98040.13
2022-10-01T20:11:01.325Z,98038.79
2022-10-01T20:16:22.838Z,98040.59
2022-10-01T20:21:41.621Z,98040.56
2022-10-01T20:26:54.535Z,98043.08
2022-10-01T20:32:20.782Z,98048.42
2022-10-01T20:37:35.175Z,98046.35
2022-10-01T20:42:46.842Z,98048.76
2022-10-01T20:47:58.057Z,98051.56
2022-10-01T20:53:17.409Z,98055.61
2022-10-01T20:58:31.092Z,98063.48
2022-10-01T21:03:44.353Z,98073.02
2022-10-01T21:09:14.283Z,98071.16
2022-10-01T21:14:38.138Z,98079.36
2022-10-01T21:20:02.748Z,98079.50
2022-10-01T21:25:41.258Z,98084.21
2022-10-01T21:31:11.191Z,98086.08
2022-10-01T21:36:26.722Z,98089.48
2022-10-01T21:41:37.848Z,98084.78
2022-10-01T21:46:55.466Z,98083.98
2022-10-01T21:52:27.486Z,98084.95
2022-10-01T21:57:43.278Z,98085.63
2022-10-01T22:03:05.438Z,98092.39
2022-10-01T22:08:29.582Z,98098.20
2022-10-01T22:13:35.793Z,98099.86
2022-10-01T22:18:51.442Z,98099.66
2022-10-01T22:24:02.930Z,98099.88
2022-10-01T22:29:11.203Z,98104.77
2022-10-01T22:34:22.403Z,98113.70
2022-10-01T22:39:28.278Z,98118.55
2022-10-01T22:44:30.094Z,98119.29
2022-10-01T22:49:56.338Z,98119.02
2022-10-01T22:55:21.449Z,98118.25
2022-10-01T23:00:23.231Z,98123.42
2022-10-01T23:05:43.388Z,98129.50
2022-10-01T23:10:45.089Z,98137.77
2022-10-01T23:16:07.910Z,98141.14
2022-10-01T23:21:33.764Z,98138.66
2022-10-01T23:26:42.724Z,98146.45
2022-10-01T23:31:56.445Z,98148.63
2022-10-01T23:37:29.733Z,98156.06
2022-10-01T23:43:00.984Z,98162.50
2022-10-01T23:48:18.637Z,98158.36
2022-10-01T23:53:51.363Z,98163.54
2022-10-01T23:59:27.922Z,98168.20
